createdAt,value
2023-02-16T00:00:52.273Z,79047.38
2023-02-16T00:01:54.699Z,79053.41
2023-02-16T00:02:57.178Z,79049.38
2023-02-16T00:03:59.295Z,79057.44
2023-02-16T00:05:20.996Z,79075.53
2023-02-16T00:06:27.225Z,79075.53
2023-02-16T00:07:29.823Z,79073.53
2023-02-16T00:08:31.889Z,79075.53
2023-02-16T00:09:33.589Z,79079.56
2023-02-16T00:10:37.606Z,79075.53
2023-02-16T00:11:58.122Z,79077.56
2023-02-16T00:13:18.849Z,79075.53
2023-02-16T00:14:26.479Z,79063.47
2023-02-16T00:15:28.383Z,79061.47
2023-02-16T00:16:30.296Z,79065.47
2023-02-16T00:17:32.060Z,79061.47
2023-02-16T00:18:33.806Z,79073.53
2023-02-16T00:19:40.681Z,79073.53
2023-02-16T00:20:42.520Z,79069.50
2023-02-16T00:21:44.290Z,79067.50
2023-02-16T00:22:46.754Z,79069.50
2023-02-16T00:23:48.655Z,79071.53
2023-02-16T00:24:50.561Z,79059.44
2023-02-16T00:25:52.288Z,79073.53
2023-02-16T00:26:54.374Z,79073.53
2023-02-16T00:27:56.151Z,79073.53
2023-02-16T00:29:01.406Z,79083.59
2023-02-16T00:30:05.664Z,79081.59
2023-02-16T00:31:09.112Z,79085.59
2023-02-16T00:32:12.597Z,79085.59
2023-02-16T00:33:19.635Z,79093.66
2023-02-16T00:34:36.707Z,79099.69
2023-02-16T00:35:38.530Z,79103.72
2023-02-16T00:36:41.195Z,79121.81
2023-02-16T00:37:43.552Z,79093.66
2023-02-16T00:38:45.497Z,79099.69
2023-02-16T00:39:47.452Z,79093.66
2023-02-16T00:40:49.274Z,79093.66
2023-02-16T00:41:55.093Z,79091.63
2023-02-16T00:42:57.948Z,79091.63
2023-02-16T00:44:00.462Z,79091.63
2023-02-16T00:45:04.944Z,79099.69
2023-02-16T00:46:06.564Z,79099.69
2023-02-16T00:47:23.630Z,79083.59
2023-02-16T00:48:25.694Z,79081.59
2023-02-16T00:49:27.764Z,79085.59
2023-02-16T00:50:32.618Z,79079.56
2023-02-16T00:51:34.264Z,79085.59
2023-02-16T00:52:38.949Z,79085.59
2023-02-16T00:53:40.527Z,79089.63
2023-02-16T00:54:42.169Z,79089.63
2023-02-16T00:55:45.255Z,79083.59
2023-02-16T00:56:47.508Z,79087.63
2023-02-16T00:57:56.053Z,79087.63
2023-02-16T00:58:57.971Z,79089.63
2023-02-16T01:00:19.080Z,79093.66
2023-02-16T01:01:24.778Z,79087.63
2023-02-16T01:02:26.649Z,79085.59
2023-02-16T01:03:29.843Z,79081.59
2023-02-16T01:04:31.444Z,79083.59
2023-02-16T01:05:33.362Z,79089.63
2023-02-16T01:06:54.216Z,79091.63
2023-02-16T01:08:16.076Z,79093.66
2023-02-16T01:09:40.037Z,79101.69
2023-02-16T01:11:00.175Z,79107.72
2023-02-16T01:12:04.605Z,79101.69
2023-02-16T01:13:06.351Z,79109.75
2023-02-16T01:14:12.219Z,79113.78
2023-02-16T01:15:16.255Z,79121.81
2023-02-16T01:16:26.987Z,79133.88
2023-02-16T01:17:29.079Z,79137.91
2023-02-16T01:18:31.031Z,79137.91
2023-02-16T01:19:32.917Z,79145.97
2023-02-16T01:20:38.501Z,79147.97
2023-02-16T01:21:40.895Z,79152.00
2023-02-16T01:22:43.603Z,79164.06
2023-02-16T01:23:45.768Z,79168.09
2023-02-16T01:24:47.516Z,79166.09
2023-02-16T01:25:49.459Z,79166.09
2023-02-16T01:26:51.205Z,79172.13
2023-02-16T01:27:54.031Z,79178.16
2023-02-16T01:28:56.407Z,79176.16
2023-02-16T01:29:59.117Z,79164.06
2023-02-16T01:31:00.986Z,79166.09
2023-02-16T01:32:02.831Z,79166.09
2023-02-16T01:33:04.552Z,79145.97
2023-02-16T01:34:06.997Z,79147.97
2023-02-16T01:35:10.352Z,79145.97
2023-02-16T01:36:32.882Z,79137.91
2023-02-16T01:37:36.473Z,79145.97
2023-02-16T01:38:38.345Z,79150.00
2023-02-16T01:39:39.902Z,79152.00
2023-02-16T01:40:46.465Z,79145.97
2023-02-16T01:42:03.619Z,79145.97
2023-02-16T01:43:30.518Z,79141.94
2023-02-16T01:44:41.302Z,79154.00
2023-02-16T01:45:47.990Z,79141.94
2023-02-16T01:47:05.826Z,79137.91
2023-02-16T01:48:20.793Z,79137.91
2023-02-16T01:49:23.064Z,79123.84
2023-02-16T01:50:34.652Z,79125.84
2023-02-16T01:51:52.820Z,79141.94
2023-02-16T01:53:02.274Z,79133.88
2023-02-16T01:54:33.171Z,79141.94
2023-02-16T01:55:42.360Z,79145.97
2023-02-16T01:56:55.350Z,79141.94
2023-02-16T01:58:02.560Z,79139.94
2023-02-16T01:59:16.900Z,79143.94
2023-02-16T02:00:49.908Z,79145.97
2023-02-16T02:02:04.141Z,79147.97
2023-02-16T02:03:34.764Z,79145.97
2023-02-16T02:05:04.144Z,79143.94
2023-02-16T02:06:10.382Z,79145.97
2023-02-16T02:07:20.920Z,79150.00
2023-02-16T02:08:34.879Z,79141.94
2023-02-16T02:09:45.424Z,79150.00
2023-02-16T02:10:55.459Z,79154.00
2023-02-16T02:12:27.451Z,79158.03
2023-02-16T02:13:38.057Z,79158.03
2023-02-16T02:14:40.254Z,79160.03
2023-02-16T02:15:42.186Z,79160.03
2023-02-16T02:16:57.091Z,79162.06
2023-02-16T02:17:58.899Z,79170.09
2023-02-16T02:19:00.849Z,79170.09
2023-02-16T02:20:11.064Z,79180.16
2023-02-16T02:22:33.384Z,79178.16
2023-02-16T02:23:54.011Z,79180.16
2023-02-16T02:25:04.889Z,79178.16
2023-02-16T02:26:28.174Z,79182.19
2023-02-16T02:27:54.022Z,79186.19
2023-02-16T02:29:14.714Z,79190.22
2023-02-16T02:30:42.997Z,79202.31
2023-02-16T02:31:55.571Z,79192.25
2023-02-16T02:33:26.291Z,79194.25
2023-02-16T02:34:50.046Z,79190.22
2023-02-16T02:36:14.601Z,79188.22
2023-02-16T02:37:18.920Z,79190.22
2023-02-16T02:39:02.099Z,79186.19
2023-02-16T02:40:09.891Z,79182.19
2023-02-16T02:43:08.870Z,79182.19
2023-02-16T02:44:13.381Z,79180.16
2023-02-16T02:45:44.074Z,79178.16
2023-02-16T02:46:47.258Z,79182.19
2023-02-16T02:47:49.671Z,79174.13
2023-02-16T02:48:54.191Z,79170.09
2023-02-16T02:49:56.128Z,79176.16
2023-02-16T02:51:19.628Z,79178.16
2023-02-16T02:52:22.925Z,79178.16
2023-02-16T02:53:24.822Z,79176.16
2023-02-16T02:54:53.382Z,79172.13
2023-02-16T02:56:17.942Z,79178.16
2023-02-16T02:57:47.379Z,79186.19
2023-02-16T02:59:13.186Z,79190.22
2023-02-16T03:00:47.494Z,79186.19
2023-02-16T03:01:55.220Z,79198.28
2023-02-16T03:03:05.799Z,79202.31
2023-02-16T03:04:10.236Z,79204.31
2023-02-16T03:05:13.924Z,79202.31
2023-02-16T03:06:25.144Z,79202.31
2023-02-16T03:07:46.810Z,79200.28
2023-02-16T03:08:54.825Z,79202.31
2023-02-16T03:10:16.655Z,79230.47
2023-02-16T03:11:48.255Z,79206.31
2023-02-16T03:12:50.487Z,79208.34
2023-02-16T03:13:58.698Z,79212.34
2023-02-16T03:15:02.985Z,79210.34
2023-02-16T03:16:15.135Z,79210.34
2023-02-16T03:17:39.387Z,79206.31
2023-02-16T03:19:02.487Z,79212.34
2023-02-16T03:20:27.295Z,79216.38
2023-02-16T03:21:49.067Z,79218.41
2023-02-16T03:23:10.104Z,79218.41
2023-02-16T03:24:37.928Z,79220.41
2023-02-16T03:25:59.967Z,79218.41
2023-02-16T03:27:21.309Z,79230.47
2023-02-16T03:28:46.803Z,79222.41
2023-02-16T03:29:51.175Z,79228.47
2023-02-16T03:30:55.055Z,79226.44
2023-02-16T03:31:57.912Z,79232.47
2023-02-16T03:33:00.218Z,79222.41
2023-02-16T03:34:03.189Z,79222.41
2023-02-16T03:35:06.086Z,79220.41
2023-02-16T03:36:09.641Z,79220.41
2023-02-16T03:37:13.026Z,79222.41
2023-02-16T03:38:14.881Z,79220.41
2023-02-16T03:39:17.840Z,79226.44
2023-02-16T03:40:30.041Z,79234.50
2023-02-16T03:41:40.313Z,79230.47
2023-02-16T03:42:50.243Z,79230.47
2023-02-16T03:43:52.640Z,79232.47
2023-02-16T03:44:54.731Z,79230.47
2023-02-16T03:45:56.646Z,79230.47
2023-02-16T03:46:58.392Z,79230.47
2023-02-16T03:48:01.692Z,79232.47
2023-02-16T03:49:04.761Z,79228.47
2023-02-16T03:50:07.448Z,79230.47
2023-02-16T03:51:09.174Z,79228.47
2023-02-16T03:52:11.058Z,79226.44
2023-02-16T03:53:13.601Z,79232.47
2023-02-16T03:54:15.356Z,79230.47
2023-02-16T03:55:17.859Z,79226.44
2023-02-16T03:56:20.678Z,79226.44
2023-02-16T03:57:22.848Z,79224.44
2023-02-16T03:58:25.251Z,79226.44
2023-02-16T03:59:27.286Z,79226.44
2023-02-16T04:00:29.774Z,79228.47
2023-02-16T04:01:31.724Z,79232.47
2023-02-16T04:02:33.843Z,79238.50
2023-02-16T04:03:36.111Z,79242.53
2023-02-16T04:04:39.115Z,79238.50
2023-02-16T04:05:41.714Z,79242.53
2023-02-16T04:06:43.805Z,79244.56
2023-02-16T04:07:45.767Z,79248.56
2023-02-16T04:08:47.581Z,79240.53
2023-02-16T04:09:49.244Z,79236.50
2023-02-16T04:10:51.047Z,79238.50
2023-02-16T04:12:11.325Z,79246.56
2023-02-16T04:13:13.183Z,79254.63
2023-02-16T04:14:15.086Z,79256.63
2023-02-16T04:15:20.625Z,79250.59
2023-02-16T04:16:22.968Z,79258.63
2023-02-16T04:17:25.685Z,79258.63
2023-02-16T04:18:27.801Z,79262.66
2023-02-16T04:19:30.806Z,79262.66
2023-02-16T04:20:34.117Z,79268.69
2023-02-16T04:21:36.368Z,79272.72
2023-02-16T04:22:38.392Z,79274.72
2023-02-16T04:23:40.940Z,79278.75
2023-02-16T04:24:44.217Z,79282.78
2023-02-16T04:25:46.149Z,79286.81
2023-02-16T04:26:49.577Z,79282.78
2023-02-16T04:27:52.266Z,79290.81
2023-02-16T04:28:54.473Z,79286.81
2023-02-16T04:29:56.284Z,79300.88
2023-02-16T04:30:58.557Z,79306.94
2023-02-16T04:32:00.467Z,79310.94
2023-02-16T04:33:02.325Z,79312.97
2023-02-16T04:34:04.254Z,79314.97
2023-02-16T04:35:07.542Z,79321.00
2023-02-16T04:36:09.906Z,79325.03
2023-02-16T04:37:12.119Z,79325.03
2023-02-16T04:38:14.409Z,79329.06
2023-02-16T04:39:16.328Z,79335.09
2023-02-16T04:40:18.901Z,79339.13
2023-02-16T04:41:20.880Z,79335.09
2023-02-16T04:42:22.967Z,79331.06
2023-02-16T04:43:25.631Z,79333.09
2023-02-16T04:44:27.736Z,79331.06
2023-02-16T04:45:29.928Z,79329.06
2023-02-16T04:46:31.964Z,79333.09
2023-02-16T04:47:34.218Z,79333.09
2023-02-16T04:48:35.978Z,79331.06
2023-02-16T04:49:37.648Z,79331.06
2023-02-16T04:50:40.934Z,79331.06
2023-02-16T04:51:42.604Z,79337.09
2023-02-16T04:52:44.684Z,79331.06
2023-02-16T04:53:47.001Z,79329.06
2023-02-16T04:54:50.281Z,79333.09
2023-02-16T04:55:52.215Z,79335.09
2023-02-16T04:56:53.997Z,79335.09
2023-02-16T04:57:56.515Z,79347.16
2023-02-16T04:58:58.611Z,79335.09
2023-02-16T05:00:02.184Z,79343.13
2023-02-16T05:01:05.206Z,79339.13
2023-02-16T05:02:07.547Z,79335.09
2023-02-16T05:03:09.649Z,79331.06
2023-02-16T05:04:11.763Z,79329.06
2023-02-16T05:05:13.721Z,79331.06
2023-02-16T05:06:15.913Z,79335.09
2023-02-16T05:07:18.024Z,79337.09
2023-02-16T05:08:20.945Z,79335.09
2023-02-16T05:09:23.749Z,79335.09
2023-02-16T05:10:25.379Z,79333.09
2023-02-16T05:11:45.954Z,79339.13
2023-02-16T05:13:06.374Z,79347.16
2023-02-16T05:14:36.430Z,79347.16
2023-02-16T05:15:38.488Z,79343.13
2023-02-16T05:16:40.246Z,79341.13
2023-02-16T05:17:42.357Z,79341.13
2023-02-16T05:18:44.107Z,79339.13
2023-02-16T05:19:52.127Z,79341.13
2023-02-16T05:21:12.412Z,79335.09
2023-02-16T05:22:15.093Z,79321.00
2023-02-16T05:23:17.231Z,79316.97
2023-02-16T05:24:19.364Z,79347.16
2023-02-16T05:25:22.410Z,79323.03
2023-02-16T05:26:24.605Z,79314.97
2023-02-16T05:27:28.916Z,79316.97
2023-02-16T05:28:30.997Z,79314.97
2023-02-16T05:29:34.326Z,79314.97
2023-02-16T05:30:36.455Z,79308.94
2023-02-16T05:31:38.222Z,79310.94
2023-02-16T05:32:40.195Z,79327.03
2023-02-16T05:33:41.931Z,79308.94
2023-02-16T05:34:45.631Z,79306.94
2023-02-16T05:35:47.498Z,79302.91
2023-02-16T05:36:49.394Z,79300.88
2023-02-16T05:37:51.594Z,79300.88
2023-02-16T05:38:53.936Z,79302.91
2023-02-16T05:39:55.832Z,79306.94
2023-02-16T05:40:59.589Z,79314.97
2023-02-16T05:42:01.434Z,79312.97
2023-02-16T05:43:03.241Z,79341.13
2023-02-16T05:44:05.464Z,79327.03
2023-02-16T05:45:07.830Z,79329.06
2023-02-16T05:46:09.914Z,79329.06
2023-02-16T05:47:12.945Z,79331.06
2023-02-16T05:48:15.316Z,79329.06
2023-02-16T05:49:18.341Z,79329.06
2023-02-16T05:50:20.377Z,79335.09
2023-02-16T05:51:22.629Z,79333.09
2023-02-16T05:52:24.687Z,79335.09
2023-02-16T05:53:26.797Z,79335.09
2023-02-16T05:54:29.030Z,79339.13
2023-02-16T05:55:31.632Z,79337.09
2023-02-16T05:56:33.793Z,79337.09
2023-02-16T05:57:35.792Z,79337.09
2023-02-16T05:58:37.939Z,79337.09
2023-02-16T05:59:39.658Z,79341.13
2023-02-16T06:00:41.364Z,79343.13
2023-02-16T06:01:47.326Z,79351.19
2023-02-16T06:02:50.585Z,79349.19
2023-02-16T06:03:52.576Z,79355.22
2023-02-16T06:04:54.559Z,79351.19
2023-02-16T06:05:59.693Z,79357.22
2023-02-16T06:07:02.908Z,79387.41
2023-02-16T06:08:05.073Z,79363.25
2023-02-16T06:09:08.462Z,79371.31
2023-02-16T06:10:10.371Z,79379.34
2023-02-16T06:11:31.367Z,79385.41
2023-02-16T06:12:34.727Z,79387.41
2023-02-16T06:13:36.855Z,79391.44
2023-02-16T06:14:38.641Z,79387.41
2023-02-16T06:15:40.742Z,79387.41
2023-02-16T06:16:45.023Z,79395.44
2023-02-16T06:17:49.583Z,79395.44
2023-02-16T06:18:51.309Z,79403.50
2023-02-16T06:19:53.130Z,79399.47
2023-02-16T06:20:57.133Z,79401.50
2023-02-16T06:21:59.049Z,79405.50
2023-02-16T06:23:01.070Z,79425.63
2023-02-16T06:24:03.781Z,79399.47
2023-02-16T06:25:05.940Z,79391.44
2023-02-16T06:26:07.962Z,79391.44
2023-02-16T06:27:09.920Z,79393.44
2023-02-16T06:28:11.676Z,79395.44
2023-02-16T06:29:13.699Z,79391.44
2023-02-16T06:30:16.102Z,79387.41
2023-02-16T06:31:18.407Z,79383.38
2023-02-16T06:32:20.978Z,79385.41
2023-02-16T06:33:22.975Z,79381.38
2023-02-16T06:34:24.747Z,79381.38
2023-02-16T06:35:26.611Z,79375.34
2023-02-16T06:36:28.534Z,79381.38
2023-02-16T06:37:30.971Z,79379.34
2023-02-16T06:38:34.187Z,79379.34
2023-02-16T06:39:36.251Z,79383.38
2023-02-16T06:40:38.152Z,79387.41
2023-02-16T06:41:42.935Z,79391.44
2023-02-16T06:42:45.368Z,79391.44
2023-02-16T06:43:47.326Z,79385.41
2023-02-16T06:44:49.377Z,79375.34
2023-02-16T06:45:51.911Z,79375.34
2023-02-16T06:46:54.090Z,79375.34
2023-02-16T06:47:55.974Z,79375.34
2023-02-16T06:48:58.783Z,79371.31
2023-02-16T06:50:01.345Z,79371.31
2023-02-16T06:51:03.914Z,79363.25
2023-02-16T06:52:06.407Z,79365.28
2023-02-16T06:53:10.789Z,79357.22
2023-02-16T06:54:13.511Z,79357.22
2023-02-16T06:55:15.586Z,79353.19
2023-02-16T06:56:17.605Z,79357.22
2023-02-16T06:57:19.374Z,79353.19
2023-02-16T06:58:21.132Z,79349.19
2023-02-16T06:59:23.056Z,79345.16
2023-02-16T07:00:25.238Z,79341.13
2023-02-16T07:01:27.134Z,79343.13
2023-02-16T07:02:29.067Z,79337.09
2023-02-16T07:03:30.918Z,79361.25
2023-02-16T07:04:32.661Z,79329.06
2023-02-16T07:05:34.649Z,79321.00
2023-02-16T07:06:37.299Z,79321.00
2023-02-16T07:07:41.031Z,79310.94
2023-02-16T07:08:43.038Z,79306.94
2023-02-16T07:09:45.214Z,79308.94
2023-02-16T07:10:50.364Z,79302.91
2023-02-16T07:11:52.799Z,79290.81
2023-02-16T07:12:54.982Z,79292.84
2023-02-16T07:13:57.206Z,79288.81
2023-02-16T07:14:58.886Z,79278.75
2023-02-16T07:16:00.876Z,79278.75
2023-02-16T07:17:04.574Z,79266.69
2023-02-16T07:18:06.597Z,79256.63
2023-02-16T07:19:08.845Z,79246.56
2023-02-16T07:20:13.022Z,79236.50
2023-02-16T07:21:15.334Z,79238.50
2023-02-16T07:22:17.845Z,79238.50
2023-02-16T07:23:19.717Z,79228.47
2023-02-16T07:24:21.551Z,79222.41
2023-02-16T07:25:26.106Z,79218.41
2023-02-16T07:26:28.390Z,79210.34
2023-02-16T07:27:30.363Z,79210.34
2023-02-16T07:28:32.749Z,79208.34
2023-02-16T07:29:35.252Z,79208.34
2023-02-16T07:30:37.271Z,79198.28
2023-02-16T07:31:39.356Z,79190.22
2023-02-16T07:32:41.805Z,79182.19
2023-02-16T07:33:44.663Z,79176.16
2023-02-16T07:34:46.500Z,79170.09
2023-02-16T07:35:50.330Z,79166.09
2023-02-16T07:36:52.236Z,79154.00
2023-02-16T07:37:54.542Z,79150.00
2023-02-16T07:38:56.796Z,79133.88
2023-02-16T07:39:58.860Z,79121.81
2023-02-16T07:41:00.708Z,79103.72
2023-02-16T07:42:02.482Z,79077.56
2023-02-16T07:43:06.378Z,79049.38
2023-02-16T07:44:08.895Z,79023.22
2023-02-16T07:45:10.998Z,79013.19
2023-02-16T07:46:13.571Z,79001.09
2023-02-16T07:47:15.438Z,78952.81
2023-02-16T07:48:18.107Z,78906.53
2023-02-16T07:49:20.178Z,78856.25
2023-02-16T07:50:22.521Z,78795.91
2023-02-16T07:51:26.871Z,78749.63
2023-02-16T07:52:31.605Z,78699.34
2023-02-16T07:53:34.345Z,78655.06
2023-02-16T07:54:36.561Z,78606.78
2023-02-16T07:55:45.948Z,78566.56
2023-02-16T07:56:48.288Z,78524.31
2023-02-16T07:57:55.540Z,78480.06
2023-02-16T07:58:59.973Z,78427.75
2023-02-16T08:00:02.351Z,78387.53
2023-02-16T08:01:10.638Z,78381.50
2023-02-16T08:02:17.114Z,78367.41
2023-02-16T08:03:19.217Z,78391.53
2023-02-16T08:04:21.086Z,78307.06
2023-02-16T08:05:23.462Z,78327.19
2023-02-16T08:06:25.446Z,78208.50
2023-02-16T08:07:28.309Z,78150.16
2023-02-16T08:08:30.692Z,78144.13
2023-02-16T08:09:34.211Z,78115.97
2023-02-16T08:10:36.065Z,78019.41
2023-02-16T08:11:38.074Z,78023.44
2023-02-16T08:12:40.127Z,78007.34
2023-02-16T08:13:42.280Z,77975.16
2023-02-16T08:14:46.594Z,77882.66
2023-02-16T08:15:48.539Z,77776.03
2023-02-16T08:16:53.540Z,77723.75
2023-02-16T08:17:56.557Z,77679.50
2023-02-16T08:19:00.278Z,77653.34
2023-02-16T08:20:03.705Z,77615.16
2023-02-16T08:21:15.797Z,77502.53
2023-02-16T08:22:18.507Z,77414.03
2023-02-16T08:23:20.996Z,77333.59
2023-02-16T08:24:25.268Z,77251.13
2023-02-16T08:25:27.523Z,77174.72
2023-02-16T08:26:37.274Z,77112.38
2023-02-16T08:27:38.913Z,77068.13
2023-02-16T08:28:50.227Z,77021.88
2023-02-16T08:29:52.215Z,76997.75
2023-02-16T08:30:54.135Z,77096.28
2023-02-16T08:31:56.988Z,77154.59
2023-02-16T08:33:01.374Z,77050.03
2023-02-16T08:34:04.827Z,76977.66
2023-02-16T08:35:08.185Z,76891.19
2023-02-16T08:36:30.365Z,76848.94
2023-02-16T08:37:33.506Z,76804.72
2023-02-16T08:38:43.281Z,76758.47
2023-02-16T08:39:45.416Z,76704.19
2023-02-16T08:40:51.082Z,76680.03
2023-02-16T08:41:54.419Z,76676.03
2023-02-16T08:42:56.464Z,76653.91
2023-02-16T08:43:58.970Z,76603.63
2023-02-16T08:45:00.819Z,76607.66
2023-02-16T08:46:02.890Z,76567.44
2023-02-16T08:47:05.254Z,76551.38
2023-02-16T08:48:07.382Z,76545.34
2023-02-16T08:49:11.353Z,76575.50
2023-02-16T08:50:13.211Z,76599.63
2023-02-16T08:51:17.769Z,76653.91
2023-02-16T08:52:19.565Z,76718.25
2023-02-16T08:53:23.477Z,76736.34
2023-02-16T08:54:29.923Z,76897.22
2023-02-16T08:55:31.682Z,76969.59
2023-02-16T08:56:34.930Z,76975.63
2023-02-16T08:57:37.362Z,76999.75
2023-02-16T08:58:39.640Z,77001.78
2023-02-16T08:59:41.506Z,76943.47
2023-02-16T09:00:43.555Z,76935.41
2023-02-16T09:01:45.868Z,76901.22
2023-02-16T09:02:48.325Z,76933.41
2023-02-16T09:03:52.625Z,77001.78
2023-02-16T09:04:54.614Z,77100.31
2023-02-16T09:06:01.789Z,77017.88
2023-02-16T09:07:05.024Z,77003.78
2023-02-16T09:08:07.409Z,76941.44
2023-02-16T09:09:10.360Z,76965.59
2023-02-16T09:10:12.267Z,76905.25
2023-02-16T09:11:16.118Z,76913.28
2023-02-16T09:12:17.974Z,76846.94
2023-02-16T09:13:19.793Z,76732.31
2023-02-16T09:14:23.293Z,76760.47
2023-02-16T09:15:25.163Z,76756.47
2023-02-16T09:16:33.861Z,76670.00
2023-02-16T09:17:36.144Z,76680.03
2023-02-16T09:18:39.519Z,76690.09
2023-02-16T09:19:43.676Z,76659.94
2023-02-16T09:20:47.078Z,76649.88
2023-02-16T09:21:56.460Z,76567.44
2023-02-16T09:22:58.414Z,76539.28
2023-02-16T09:24:05.553Z,76678.03
2023-02-16T09:25:08.613Z,76657.94
2023-02-16T09:26:11.201Z,76553.38
2023-02-16T09:27:13.032Z,76511.16
2023-02-16T09:28:16.122Z,76583.53
2023-02-16T09:29:18.541Z,76505.13
2023-02-16T09:30:21.346Z,76523.22
2023-02-16T09:31:31.807Z,76593.59
2023-02-16T09:32:33.729Z,76521.19
2023-02-16T09:33:35.396Z,76414.63
2023-02-16T09:34:38.440Z,76370.41
2023-02-16T09:35:40.166Z,76386.50
2023-02-16T09:36:42.412Z,76468.94
2023-02-16T09:37:44.183Z,76366.38
2023-02-16T09:38:47.965Z,76326.19
2023-02-16T09:39:49.740Z,76326.19
2023-02-16T09:40:52.233Z,76312.09
2023-02-16T09:42:36.314Z,76396.53
2023-02-16T09:43:45.626Z,76495.06
2023-02-16T09:45:09.952Z,76422.69
2023-02-16T09:46:17.763Z,76358.34
2023-02-16T09:47:31.259Z,76458.88
2023-02-16T09:48:45.458Z,76406.59
2023-02-16T09:49:49.275Z,76442.78
2023-02-16T09:50:54.865Z,76380.47
2023-02-16T09:52:04.835Z,76310.09
2023-02-16T09:53:13.928Z,76334.22
2023-02-16T09:54:31.551Z,76287.97
2023-02-16T09:56:04.626Z,76217.59
2023-02-16T09:57:32.772Z,76225.66
2023-02-16T09:58:50.527Z,76147.25
2023-02-16T10:00:01.205Z,76078.88
2023-02-16T10:01:24.655Z,76038.69
2023-02-16T10:02:29.963Z,76028.63
2023-02-16T10:03:37.583Z,76040.69
2023-02-16T10:04:50.488Z,76024.59
2023-02-16T10:06:13.799Z,75992.44
2023-02-16T10:07:36.887Z,75944.19
2023-02-16T10:08:44.067Z,75938.16
2023-02-16T10:09:53.964Z,75956.25
2023-02-16T10:11:40.505Z,75908.00
2023-02-16T10:12:49.520Z,75881.88
2023-02-16T10:13:57.507Z,75841.66
2023-02-16T10:15:30.431Z,75815.53
2023-02-16T10:16:39.399Z,75841.66
2023-02-16T10:17:49.231Z,75781.34
2023-02-16T10:18:54.081Z,75753.22
2023-02-16T10:20:42.397Z,75757.22
2023-02-16T10:21:49.903Z,75727.06
2023-02-16T10:23:13.388Z,75686.88
2023-02-16T10:24:15.809Z,75670.78
2023-02-16T10:25:46.567Z,75666.78
2023-02-16T10:26:57.981Z,75630.59
2023-02-16T10:28:16.336Z,75622.53
2023-02-16T10:29:23.565Z,75664.75
2023-02-16T10:30:25.901Z,75755.22
2023-02-16T10:31:49.310Z,75946.19
2023-02-16T10:33:07.099Z,76016.56
2023-02-16T10:34:38.460Z,75863.78
2023-02-16T10:35:50.176Z,75891.91
2023-02-16T10:37:19.220Z,75793.41
2023-02-16T10:38:32.178Z,75787.38
2023-02-16T10:39:48.656Z,75851.72
2023-02-16T10:41:01.616Z,75771.31
2023-02-16T10:42:14.353Z,75757.22
2023-02-16T10:43:18.655Z,75751.19
2023-02-16T10:44:22.289Z,75755.22
2023-02-16T10:45:33.704Z,75662.75
2023-02-16T10:46:40.705Z,75652.69
2023-02-16T10:47:45.359Z,75672.78
2023-02-16T10:48:48.210Z,75614.50
2023-02-16T10:49:50.807Z,75628.56
2023-02-16T10:51:07.747Z,75650.69
2023-02-16T10:52:11.387Z,75606.47
2023-02-16T10:53:21.099Z,75552.19
2023-02-16T10:54:27.358Z,75650.69
2023-02-16T10:55:29.577Z,75670.78
2023-02-16T10:56:57.275Z,75662.75
2023-02-16T10:58:01.157Z,75582.34
2023-02-16T10:59:08.203Z,75556.22
2023-02-16T11:00:16.793Z,75514.00
2023-02-16T11:01:35.188Z,75447.66
2023-02-16T11:02:41.837Z,75457.72
2023-02-16T11:03:47.911Z,75425.53
2023-02-16T11:04:54.409Z,75417.50
2023-02-16T11:05:56.418Z,75427.56
2023-02-16T11:07:03.987Z,75407.47
2023-02-16T11:08:08.215Z,75463.75
2023-02-16T11:09:15.550Z,75375.28
2023-02-16T11:10:42.398Z,75367.25
2023-02-16T11:11:44.254Z,75329.06
2023-02-16T11:12:54.062Z,75389.38
2023-02-16T11:14:03.142Z,75461.72
2023-02-16T11:15:22.201Z,75405.44
2023-02-16T11:16:27.620Z,75407.47
2023-02-16T11:17:32.087Z,75558.22
2023-02-16T11:18:38.182Z,75757.22
2023-02-16T11:19:51.711Z,75891.91
2023-02-16T11:20:55.898Z,76006.50
2023-02-16T11:21:58.801Z,75879.84
2023-02-16T11:23:29.416Z,75771.31
2023-02-16T11:24:38.935Z,75839.66
2023-02-16T11:25:42.872Z,75877.84
2023-02-16T11:26:58.875Z,75988.41
2023-02-16T11:28:09.775Z,76080.91
2023-02-16T11:29:21.276Z,76119.09
2023-02-16T11:30:35.397Z,76149.25
2023-02-16T11:31:40.648Z,76273.91
2023-02-16T11:32:42.789Z,76285.97
2023-02-16T11:34:28.005Z,76269.88
2023-02-16T11:35:33.195Z,76308.09
2023-02-16T11:36:39.534Z,76281.94
2023-02-16T11:37:41.581Z,76326.19
2023-02-16T11:38:59.618Z,76328.19
2023-02-16T11:40:18.755Z,76312.09
2023-02-16T11:41:24.613Z,76314.09
2023-02-16T11:42:45.042Z,76318.13
2023-02-16T11:43:47.194Z,76372.41
2023-02-16T11:44:54.726Z,76412.63
2023-02-16T11:46:06.299Z,76464.91
2023-02-16T11:47:24.184Z,76440.78
2023-02-16T11:48:29.032Z,76426.69
2023-02-16T11:49:37.654Z,76434.75
2023-02-16T11:50:55.246Z,76418.66
2023-02-16T11:51:57.416Z,76487.03
2023-02-16T11:53:12.376Z,76517.19
2023-02-16T11:54:18.050Z,76682.06
2023-02-16T11:55:28.584Z,76653.91
2023-02-16T11:56:34.928Z,76547.34
2023-02-16T11:57:37.540Z,76460.88
2023-02-16T11:58:41.050Z,76378.44
2023-02-16T11:59:43.112Z,76340.25
2023-02-16T12:01:12.490Z,76245.75
2023-02-16T12:02:17.774Z,76171.38
2023-02-16T12:03:25.739Z,76167.34
2023-02-16T12:04:36.943Z,76129.16
2023-02-16T12:05:45.951Z,76092.97
2023-02-16T12:07:16.687Z,76036.66
2023-02-16T12:08:24.733Z,75998.47
2023-02-16T12:10:03.908Z,75990.44
2023-02-16T12:11:08.871Z,76056.78
2023-02-16T12:12:18.048Z,76016.56
2023-02-16T12:13:51.077Z,76137.19
2023-02-16T12:15:17.957Z,76183.44
2023-02-16T12:16:42.493Z,76161.31
2023-02-16T12:17:56.413Z,76306.06
2023-02-16T12:19:13.614Z,76267.88
2023-02-16T12:20:18.575Z,76187.44
2023-02-16T12:21:35.770Z,76149.25
2023-02-16T12:22:40.261Z,76099.00
2023-02-16T12:24:10.018Z,76026.63
2023-02-16T12:25:36.833Z,76000.47
2023-02-16T12:27:03.129Z,75934.13
2023-02-16T12:28:19.345Z,75944.19
2023-02-16T12:29:45.359Z,75899.97
2023-02-16T12:31:17.540Z,75843.66
2023-02-16T12:32:48.205Z,75885.88
2023-02-16T12:34:18.195Z,76121.09
2023-02-16T12:35:38.166Z,76113.06
2023-02-16T12:36:40.976Z,76105.03
2023-02-16T12:38:01.755Z,76133.16
2023-02-16T12:39:12.973Z,76127.13
2023-02-16T12:40:37.084Z,76261.84
2023-02-16T12:42:13.849Z,76344.28
2023-02-16T12:43:41.783Z,76390.50
2023-02-16T12:44:52.496Z,76418.66
2023-02-16T12:45:58.185Z,76464.91
2023-02-16T12:47:12.958Z,76527.22
2023-02-16T12:48:42.140Z,76593.59
2023-02-16T12:49:51.836Z,76555.38
2023-02-16T12:50:57.132Z,76529.25
2023-02-16T12:52:11.349Z,76499.09
2023-02-16T12:53:27.940Z,76485.00
2023-02-16T12:54:55.588Z,76454.84
2023-02-16T12:56:02.551Z,76499.09
2023-02-16T12:57:15.968Z,76456.88
2023-02-16T12:58:28.788Z,76420.66
2023-02-16T12:59:59.618Z,76418.66
2023-02-16T13:01:09.098Z,76366.38
2023-02-16T13:02:27.040Z,76239.72
2023-02-16T13:03:34.808Z,76145.22
2023-02-16T13:05:14.940Z,76032.66
2023-02-16T13:06:29.944Z,75946.19
2023-02-16T13:07:38.269Z,75859.75
2023-02-16T13:08:48.330Z,75879.84
2023-02-16T13:10:04.638Z,75926.09
2023-02-16T13:11:26.065Z,76012.53
2023-02-16T13:12:53.149Z,75988.41
2023-02-16T13:14:02.009Z,75940.16
2023-02-16T13:15:12.817Z,75893.94
2023-02-16T13:16:30.366Z,75918.06
2023-02-16T13:17:43.496Z,75807.47
2023-02-16T13:18:49.034Z,75713.00